Terminal Aerodrome Forecast
Issued by NWS Sterling, VA

Home | Current Version | Previous Version | Text Only | Print | Product List | Glossary On
Versions: 1 2 3 4 5 6 7 8 9 10 11 12 13 14 15 16 17 18 19 20 21 22
000
FTUS41 KLWX 250542 RRA
TAFDCA
TAF
KDCA 250542Z 2506/2606 34004KT P6SM FEW250
     FM251300 VRB04KT P6SM BKN110
     FM252100 17004KT P6SM -RA OVC070
     FM260000 00000KT 6SM -RA OVC025
     FM260200 VRB03KT 3SM -RA OVC015=

USA.gov is the U.S. government's official web portal to all federal, state and local government web resources and services.